createdAt,value
2018-07-07T00:07:00.782Z,15.57
2018-07-07T00:17:00.784Z,15.11
2018-07-07T00:27:01.690Z,14.86
2018-07-07T00:37:00.752Z,14.69
2018-07-07T00:47:00.708Z,14.49
2018-07-07T00:57:00.739Z,14.19
2018-07-07T01:07:00.735Z,14.01
2018-07-07T01:23:28.011Z,13.94
2018-07-07T01:27:00.683Z,13.89
2018-07-07T01:37:00.710Z,13.8
2018-07-07T01:47:00.685Z,13.67
2018-07-07T01:57:00.716Z,13.76
2018-07-07T02:07:00.810Z,13.71
2018-07-07T02:17:00.751Z,13.56
2018-07-07T02:27:00.812Z,13.46
2018-07-07T02:37:00.797Z,13.24
2018-07-07T02:47:00.745Z,13.17
2018-07-07T02:57:00.776Z,13.07
2018-07-07T03:07:00.845Z,12.99
2018-07-07T03:17:00.823Z,12.7
2018-07-07T03:27:00.880Z,12.67
2018-07-07T03:37:00.869Z,12.64
2018-07-07T03:47:00.916Z,12.57
2018-07-07T04:01:18.575Z,12.6
2018-07-07T04:07:01.860Z,12.62
2018-07-07T04:17:00.897Z,12.67
2018-07-07T04:27:00.864Z,12.92
2018-07-07T04:37:00.925Z,13.25
2018-07-07T04:47:00.912Z,13.8
2018-07-07T04:57:00.940Z,14.44
2018-07-07T05:07:00.933Z,15.03
2018-07-07T05:17:00.964Z,15.89
2018-07-07T05:27:00.942Z,16.45
2018-07-07T05:37:02.933Z,16.8
2018-07-07T05:47:00.978Z,17.32
2018-07-07T05:57:01.021Z,18.02
2018-07-07T06:07:01.999Z,21.61
2018-07-07T06:17:04.438Z,25.37
2018-07-07T06:27:01.009Z,27.5
2018-07-07T06:37:03.030Z,28.33
2018-07-07T06:47:04.596Z,29.93
2018-07-07T06:57:10.958Z,30.4
2018-07-07T07:07:01.994Z,31.23
2018-07-07T07:17:06.260Z,31.5
2018-07-07T07:27:00.976Z,32.02
2018-07-07T07:37:01.090Z,32.33
2018-07-07T07:47:02.030Z,33.57
2018-07-07T07:57:01.117Z,35.11
2018-07-07T08:07:01.001Z,35.3
2018-07-07T08:17:01.771Z,36.23
2018-07-07T08:27:01.005Z,37.43
2018-07-07T08:37:01.023Z,36.63
2018-07-07T08:47:01.095Z,37.1
2018-07-07T08:57:01.129Z,37.23
2018-07-07T09:07:01.009Z,35.97
2018-07-07T09:17:01.469Z,33.79
2018-07-07T09:27:01.050Z,28.8
2018-07-07T09:37:01.004Z,26.99
2018-07-07T09:47:01.045Z,25.84
2018-07-07T09:57:01.030Z,25.06
2018-07-07T10:07:01.069Z,24.92
2018-07-07T10:17:01.028Z,25.07
2018-07-07T10:27:01.027Z,24.9
2018-07-07T10:37:01.044Z,25.06
2018-07-07T10:47:01.155Z,25.12
2018-07-07T10:57:01.035Z,25.13
2018-07-07T11:07:01.101Z,25.06
2018-07-07T11:17:01.048Z,25.02
2018-07-07T11:27:01.074Z,25.13
2018-07-07T11:37:01.510Z,25.01
2018-07-07T11:47:01.053Z,25
2018-07-07T11:57:01.048Z,25.32
2018-07-07T12:07:01.064Z,25.19
2018-07-07T12:17:02.484Z,25.49
2018-07-07T12:27:01.196Z,25.47
2018-07-07T12:37:03.199Z,25.59
2018-07-07T12:47:01.171Z,25.59
2018-07-07T12:57:01.155Z,25.82
2018-07-07T13:07:01.566Z,25.74
2018-07-07T13:17:01.117Z,25.5
2018-07-07T13:27:01.135Z,25.84
2018-07-07T13:37:01.145Z,25.86
2018-07-07T13:47:01.160Z,25.83
2018-07-07T14:07:01.140Z,26.05
2018-07-07T14:17:01.231Z,25.9
2018-07-07T14:27:01.154Z,26.08
2018-07-07T14:37:11.886Z,26.02
2018-07-07T14:47:01.167Z,26.09
2018-07-07T14:57:01.237Z,26.08
2018-07-07T15:07:01.157Z,26.08
2018-07-07T15:17:01.209Z,26.21
2018-07-07T15:27:01.193Z,26.25
2018-07-07T15:37:01.096Z,26.29
2018-07-07T15:47:01.193Z,26.29
2018-07-07T15:57:01.112Z,26.67
2018-07-07T16:07:01.207Z,26.29
2018-07-07T16:17:01.129Z,26.37
2018-07-07T16:27:01.132Z,26.42
2018-07-07T16:37:01.160Z,26.22
2018-07-07T16:47:01.161Z,26.05
2018-07-07T16:57:01.194Z,26.06
2018-07-07T17:07:01.466Z,26.2
2018-07-07T17:17:01.127Z,25.72
2018-07-07T17:27:01.206Z,25.54
2018-07-07T17:37:01.315Z,25.43
2018-07-07T17:47:01.367Z,25.1
2018-07-07T17:57:01.164Z,24.77
2018-07-07T18:07:01.477Z,24.37
2018-07-07T18:17:01.265Z,24.08
2018-07-07T18:27:01.230Z,23.71
2018-07-07T18:37:01.260Z,23.01
2018-07-07T18:47:01.192Z,22.65
2018-07-07T18:57:01.151Z,22.32
2018-07-07T19:07:01.221Z,21.87
2018-07-07T19:17:01.159Z,21.57
2018-07-07T19:27:01.338Z,21.04
2018-07-07T19:37:01.242Z,20.65
2018-07-07T19:47:01.210Z,20.28
2018-07-07T19:57:01.226Z,19.8
2018-07-07T20:07:01.225Z,19.48
2018-07-07T20:17:01.264Z,19.17
2018-07-07T20:27:01.216Z,18.83
2018-07-07T20:37:01.183Z,18.5
2018-07-07T20:47:01.237Z,18.29
2018-07-07T20:57:04.576Z,17.89
2018-07-07T21:07:01.278Z,17.54
2018-07-07T21:17:01.212Z,17.33
2018-07-07T21:27:02.237Z,17.07
2018-07-07T21:37:01.397Z,16.74
2018-07-07T21:47:01.197Z,16.56
2018-07-07T21:57:01.207Z,16.3
2018-07-07T22:07:01.272Z,16.06
2018-07-07T22:17:01.181Z,15.88
2018-07-07T22:27:01.388Z,15.57
2018-07-07T22:37:01.199Z,15.35
2018-07-07T22:47:01.264Z,15.12
2018-07-07T22:57:01.223Z,14.99
2018-07-07T23:07:01.303Z,14.69
2018-07-07T23:17:01.535Z,14.54
2018-07-07T23:27:01.331Z,14.44
2018-07-07T23:37:01.406Z,14.27
2018-07-07T23:47:01.336Z,14.16
2018-07-07T23:57:01.301Z,13.95
